createdAt,value
2018-11-10T00:01:51.827Z,22.83
2018-11-10T00:04:22.019Z,24.20
2018-11-10T00:06:52.092Z,21.77
2018-11-10T00:09:22.251Z,24.73
2018-11-10T00:11:52.406Z,25.47
2018-11-10T00:14:22.561Z,20.70
2018-11-10T00:16:52.780Z,22.37
2018-11-10T00:19:22.908Z,23.60
2018-11-10T00:21:53.050Z,25.63
2018-11-10T00:24:23.201Z,28.43
2018-11-10T00:26:53.297Z,24.73
2018-11-10T00:29:23.430Z,23.40
2018-11-10T00:31:53.606Z,25.20
2018-11-10T00:34:23.755Z,27.63
2018-11-10T00:36:53.864Z,25.60
2018-11-10T00:39:24.026Z,24.13
2018-11-10T00:41:54.176Z,28.60
2018-11-10T00:44:24.293Z,21.90
2018-11-10T00:46:54.437Z,22.30
2018-11-10T00:49:24.605Z,26.40
2018-11-10T00:51:54.732Z,28.90
2018-11-10T00:54:24.873Z,26.10
2018-11-10T00:56:55.033Z,23.73
2018-11-10T00:59:25.140Z,26.27
2018-11-10T01:01:55.390Z,28.27
2018-11-10T01:04:25.672Z,27.23
2018-11-10T01:06:55.812Z,27.60
2018-11-10T01:09:25.940Z,26.53
2018-11-10T01:11:56.042Z,29.87
2018-11-10T01:14:26.168Z,28.67
2018-11-10T01:16:56.389Z,26.67
2018-11-10T01:19:26.493Z,28.47
2018-11-10T01:22:03.351Z,26.97
2018-11-10T01:24:33.469Z,25.77
2018-11-10T01:27:03.624Z,26.23
2018-11-10T01:29:33.774Z,28.93
2018-11-10T01:32:03.939Z,27.10
2018-11-10T01:34:34.062Z,26.13
2018-11-10T01:37:04.194Z,29.33
2018-11-10T01:39:34.303Z,31.50
2018-11-10T01:42:04.693Z,31.93
2018-11-10T01:44:34.812Z,32.27
2018-11-10T01:47:04.965Z,30.40
2018-11-10T01:49:35.103Z,30.97
2018-11-10T01:52:05.272Z,35.97
2018-11-10T01:54:35.393Z,31.17
2018-11-10T01:57:05.652Z,31.20
2018-11-10T01:59:35.800Z,29.77
2018-11-10T02:02:06.285Z,28.93
2018-11-10T02:04:36.666Z,28.20
2018-11-10T02:07:06.854Z,29.47
2018-11-10T02:09:37.015Z,29.77
2018-11-10T02:12:07.154Z,30.57
2018-11-10T02:14:37.300Z,26.17
2018-11-10T02:17:07.429Z,30.43
2018-11-10T02:19:37.581Z,26.93
2018-11-10T02:22:07.739Z,29.53
2018-11-10T02:24:37.956Z,32.47
2018-11-10T02:27:24.342Z,30.00
2018-11-10T02:29:55.562Z,30.27
2018-11-10T02:32:25.686Z,27.03
2018-11-10T02:34:55.819Z,28.37
2018-11-10T02:37:25.956Z,30.73
2018-11-10T02:39:56.081Z,25.63
2018-11-10T02:42:26.212Z,26.50
2018-11-10T02:44:56.313Z,25.20
2018-11-10T02:47:26.417Z,27.03
2018-11-10T02:49:56.539Z,24.17
2018-11-10T02:52:26.659Z,24.17
2018-11-10T02:54:56.826Z,24.27
2018-11-10T02:57:26.956Z,22.83
2018-11-10T02:59:57.082Z,23.17
2018-11-10T03:02:27.205Z,24.93
2018-11-10T03:04:57.338Z,23.30
2018-11-10T03:07:27.453Z,22.97
2018-11-10T03:09:57.573Z,21.67
2018-11-10T03:12:27.725Z,23.43
2018-11-10T03:14:57.833Z,22.60
2018-11-10T03:17:27.974Z,21.30
2018-11-10T03:19:58.085Z,24.53
2018-11-10T03:22:28.207Z,25.57
2018-11-10T03:24:58.296Z,22.07
2018-11-10T03:27:28.557Z,20.70
2018-11-10T03:29:58.673Z,25.00
2018-11-10T03:32:28.873Z,20.50
2018-11-10T03:34:58.982Z,20.07
2018-11-10T03:37:29.188Z,19.80
2018-11-10T03:39:59.312Z,19.17
2018-11-10T03:42:29.424Z,20.63
2018-11-10T03:44:59.546Z,19.63
2018-11-10T03:47:29.669Z,19.27
2018-11-10T03:49:59.768Z,20.23
2018-11-10T03:52:29.925Z,21.27
2018-11-10T03:55:00.049Z,17.23
2018-11-10T03:57:30.177Z,18.27
2018-11-10T04:00:00.282Z,17.27
2018-11-10T04:02:30.436Z,17.30
2018-11-10T04:05:00.544Z,15.60
2018-11-10T04:07:30.648Z,18.53
2018-11-10T04:10:00.785Z,17.33
2018-11-10T04:12:30.893Z,17.40
2018-11-10T04:15:01.010Z,15.47
2018-11-10T04:17:31.154Z,14.93
2018-11-10T04:20:01.289Z,15.80
2018-11-10T04:22:34.206Z,14.37
2018-11-10T04:25:05.736Z,18.47
2018-11-10T04:27:35.858Z,20.37
2018-11-10T04:30:08.042Z,15.40
2018-11-10T04:32:38.245Z,16.00
2018-11-10T04:35:09.031Z,14.43
2018-11-10T04:37:39.134Z,16.27
2018-11-10T04:40:10.770Z,16.70
2018-11-10T04:42:41.181Z,17.40
2018-11-10T04:45:12.340Z,17.80
2018-11-10T04:47:42.461Z,16.30
2018-11-10T04:50:12.984Z,18.00
2018-11-10T04:52:43.105Z,18.03
2018-11-10T04:55:13.548Z,16.27
2018-11-10T04:57:43.677Z,17.67
2018-11-10T05:00:15.015Z,16.37
2018-11-10T05:02:45.929Z,18.43
2018-11-10T05:05:16.054Z,15.57
2018-11-10T05:07:46.210Z,18.10
2018-11-10T05:10:16.408Z,17.73
2018-11-10T05:12:46.545Z,19.67
2018-11-10T05:15:16.656Z,18.07
2018-11-10T05:17:46.776Z,15.57
2018-11-10T05:20:16.904Z,16.97
2018-11-10T05:22:47.064Z,16.63
2018-11-10T05:25:17.184Z,18.80
2018-11-10T05:27:47.282Z,16.97
2018-11-10T05:30:17.429Z,18.20
2018-11-10T05:32:47.541Z,16.40
2018-11-10T05:35:17.650Z,15.20
2018-11-10T05:37:47.786Z,15.23
2018-11-10T05:40:17.951Z,15.17
2018-11-10T05:42:48.045Z,14.40
2018-11-10T05:45:18.164Z,13.07
2018-11-10T05:47:48.306Z,14.53
2018-11-10T05:50:18.476Z,16.03
2018-11-10T05:52:48.594Z,16.03
2018-11-10T05:55:18.834Z,14.67
2018-11-10T05:57:48.944Z,14.27
2018-11-10T06:00:20.131Z,14.27
2018-11-10T06:02:50.305Z,14.97
2018-11-10T06:05:20.446Z,16.50
2018-11-10T06:07:50.605Z,16.17
2018-11-10T06:10:20.876Z,17.57
2018-11-10T06:12:50.932Z,16.83
2018-11-10T06:15:21.012Z,18.77
2018-11-10T06:17:51.415Z,16.83
2018-11-10T06:20:21.569Z,17.40
2018-11-10T06:22:51.688Z,15.77
2018-11-10T06:25:21.863Z,16.40
2018-11-10T06:27:51.951Z,15.20
2018-11-10T06:30:22.052Z,15.03
2018-11-10T06:32:52.164Z,13.73
2018-11-10T06:35:22.276Z,14.70
2018-11-10T06:37:55.356Z,14.10
2018-11-10T06:40:25.504Z,15.13
2018-11-10T06:42:55.616Z,14.00
2018-11-10T06:45:25.738Z,13.10
2018-11-10T06:47:55.860Z,14.27
2018-11-10T06:50:26.016Z,14.87
2018-11-10T06:52:56.189Z,15.90
2018-11-10T06:55:26.245Z,14.40
2018-11-10T06:57:56.520Z,20.73
2018-11-10T07:00:26.620Z,25.77
2018-11-10T07:02:56.738Z,33.13
2018-11-10T07:05:26.836Z,20.70
2018-11-10T07:07:56.996Z,18.30
2018-11-10T07:10:27.137Z,18.93
2018-11-10T07:12:57.276Z,20.03
2018-11-10T07:15:27.376Z,18.23
2018-11-10T07:17:57.500Z,18.50
2018-11-10T07:20:27.622Z,36.27
2018-11-10T07:22:57.731Z,32.57
2018-11-10T07:25:27.833Z,22.77
2018-11-10T07:27:57.952Z,21.17
2018-11-10T07:30:28.050Z,34.73
2018-11-10T07:32:58.168Z,19.23
2018-11-10T07:35:28.270Z,15.67
2018-11-10T07:37:58.397Z,15.00
2018-11-10T07:40:28.489Z,14.20
2018-11-10T07:42:58.602Z,14.83
2018-11-10T07:45:28.700Z,14.80
2018-11-10T07:47:58.813Z,16.23
2018-11-10T07:50:29.013Z,15.63
2018-11-10T07:52:59.182Z,15.87
2018-11-10T07:55:29.265Z,14.30
2018-11-10T07:57:59.390Z,16.67
2018-11-10T08:00:29.524Z,17.47
2018-11-10T08:03:00.556Z,58.23
2018-11-10T08:05:30.712Z,17.97
2018-11-10T08:08:00.814Z,18.80
2018-11-10T08:10:31.001Z,19.60
2018-11-10T08:13:01.117Z,16.00
2018-11-10T08:15:31.300Z,17.37
2018-11-10T08:18:01.421Z,21.37
2018-11-10T08:20:31.532Z,17.63
2018-11-10T08:23:01.636Z,17.07
2018-11-10T08:25:31.744Z,17.13
2018-11-10T08:28:01.870Z,18.67
2018-11-10T08:30:31.973Z,16.50
2018-11-10T08:33:02.496Z,37.03
2018-11-10T08:35:32.598Z,23.43
2018-11-10T08:38:02.713Z,15.93
2018-11-10T08:40:32.826Z,15.97
2018-11-10T08:43:02.944Z,19.63
2018-11-10T08:45:33.040Z,20.73
2018-11-10T08:48:03.207Z,19.57
2018-11-10T08:50:33.318Z,19.67
2018-11-10T08:53:03.421Z,20.03
2018-11-10T08:55:33.520Z,25.53
2018-11-10T08:58:03.653Z,23.67
2018-11-10T09:00:33.746Z,23.53
2018-11-10T09:03:03.864Z,22.60
2018-11-10T09:05:33.978Z,28.70
2018-11-10T09:08:04.113Z,23.97
2018-11-10T09:10:34.332Z,22.83
2018-11-10T09:13:04.521Z,23.30
2018-11-10T09:15:34.620Z,24.67
2018-11-10T09:18:04.804Z,24.33
2018-11-10T09:20:34.953Z,23.83
2018-11-10T09:23:05.072Z,25.83
2018-11-10T09:25:35.240Z,24.03
2018-11-10T09:28:05.765Z,25.73
2018-11-10T09:30:35.862Z,25.73
2018-11-10T09:33:05.978Z,28.67
2018-11-10T09:35:36.072Z,33.43
2018-11-10T09:38:07.655Z,36.07
2018-11-10T09:40:37.752Z,35.30
2018-11-10T09:43:07.852Z,35.60
2018-11-10T09:45:38.137Z,40.60
2018-11-10T09:48:08.237Z,38.37
2018-11-10T09:50:38.436Z,39.33
2018-11-10T09:53:08.497Z,39.27
2018-11-10T09:55:38.602Z,36.90
2018-11-10T09:58:08.740Z,36.87
2018-11-10T10:00:38.865Z,34.20
2018-11-10T10:03:09.002Z,35.07
2018-11-10T10:05:39.119Z,34.10
2018-11-10T10:08:09.212Z,32.63
2018-11-10T10:10:39.344Z,37.17
2018-11-10T10:13:09.452Z,31.47
2018-11-10T10:15:39.848Z,31.80
2018-11-10T10:18:09.956Z,29.03
2018-11-10T10:20:40.136Z,27.47
2018-11-10T10:23:10.272Z,31.47
2018-11-10T10:25:40.385Z,31.87
2018-11-10T10:28:10.569Z,32.97
2018-11-10T10:30:40.670Z,26.23
2018-11-10T10:33:10.780Z,31.10
2018-11-10T10:35:41.009Z,30.07
2018-11-10T10:38:11.100Z,29.30
2018-11-10T10:40:41.196Z,31.63
2018-11-10T10:43:11.313Z,30.43
2018-11-10T10:45:41.393Z,30.13
2018-11-10T10:48:11.500Z,31.20
2018-11-10T10:50:41.628Z,32.87
2018-11-10T10:53:11.719Z,35.43
2018-11-10T10:55:41.864Z,34.67
2018-11-10T10:58:12.011Z,35.77
2018-11-10T11:00:47.377Z,34.53
2018-11-10T11:03:22.900Z,37.10
2018-11-10T11:05:59.577Z,35.53
2018-11-10T11:08:30.052Z,38.20
2018-11-10T11:11:00.283Z,34.77
2018-11-10T11:13:31.220Z,32.83
2018-11-10T11:16:01.319Z,35.63
2018-11-10T11:18:31.412Z,33.97
2018-11-10T11:21:01.529Z,33.10
2018-11-10T11:23:31.661Z,31.90
2018-11-10T11:26:01.800Z,34.97
2018-11-10T11:28:31.918Z,36.23
2018-11-10T11:31:02.111Z,34.00
2018-11-10T11:33:32.176Z,33.03
2018-11-10T11:36:02.277Z,33.47
2018-11-10T11:38:32.573Z,32.83
2018-11-10T11:41:02.752Z,34.03
2018-11-10T11:43:32.840Z,33.30
2018-11-10T11:46:02.937Z,27.53
2018-11-10T11:48:33.042Z,31.43
2018-11-10T11:51:03.134Z,29.03
2018-11-10T11:53:33.241Z,30.37
2018-11-10T11:56:03.429Z,26.87
2018-11-10T11:58:33.533Z,29.10
2018-11-10T12:01:03.644Z,27.50
2018-11-10T12:03:33.752Z,30.80
2018-11-10T12:06:03.880Z,28.77
2018-11-10T12:08:33.967Z,27.47
2018-11-10T12:11:04.105Z,26.80
2018-11-10T12:13:34.213Z,27.03
2018-11-10T12:16:04.346Z,26.53
2018-11-10T12:18:34.431Z,27.93
2018-11-10T12:21:04.677Z,26.60
2018-11-10T12:23:34.741Z,30.27
2018-11-10T12:26:05.182Z,26.70
2018-11-10T12:28:35.286Z,28.97
2018-11-10T12:31:05.753Z,26.37
2018-11-10T12:33:35.852Z,27.20
2018-11-10T12:36:06.103Z,27.33
2018-11-10T12:38:36.252Z,24.93
2018-11-10T12:41:06.616Z,25.27
2018-11-10T12:43:36.804Z,26.77
2018-11-10T12:46:06.925Z,26.97
2018-11-10T12:48:37.026Z,25.17
2018-11-10T12:51:07.169Z,26.50
2018-11-10T12:53:37.269Z,27.37
2018-11-10T12:56:08.444Z,24.80
2018-11-10T12:58:38.557Z,26.53
2018-11-10T13:01:08.668Z,26.27
2018-11-10T13:03:38.885Z,26.57
2018-11-10T13:06:08.988Z,26.33
2018-11-10T13:08:39.080Z,25.97
2018-11-10T13:11:09.274Z,25.93
2018-11-10T13:13:39.352Z,23.43
2018-11-10T13:16:09.452Z,25.50
2018-11-10T13:18:39.540Z,23.83
2018-11-10T13:21:09.641Z,26.57
2018-11-10T13:23:39.789Z,25.17
2018-11-10T13:26:09.981Z,26.97
2018-11-10T13:28:40.348Z,33.70
2018-11-10T13:31:10.499Z,27.63
2018-11-10T13:33:40.586Z,27.17
2018-11-10T13:36:10.685Z,23.73
2018-11-10T13:38:41.261Z,26.10
2018-11-10T13:41:11.325Z,24.80
2018-11-10T13:43:41.526Z,24.47
2018-11-10T13:46:11.565Z,19.87
2018-11-10T13:48:41.672Z,21.03
2018-11-10T13:51:12.134Z,21.30
2018-11-10T13:53:42.108Z,21.97
2018-11-10T13:56:12.269Z,21.43
2018-11-10T13:58:42.396Z,19.60
2018-11-10T14:01:12.517Z,21.33
2018-11-10T14:03:42.638Z,19.07
2018-11-10T14:06:12.739Z,20.33
2018-11-10T14:08:42.847Z,20.23
2018-11-10T14:11:12.968Z,21.10
2018-11-10T14:13:43.083Z,20.60
2018-11-10T14:16:13.175Z,19.63
2018-11-10T14:18:43.293Z,18.67
2018-11-10T14:21:13.448Z,20.63
2018-11-10T14:23:43.588Z,21.73
2018-11-10T14:26:13.783Z,18.10
2018-11-10T14:28:43.849Z,18.03
2018-11-10T14:31:13.958Z,20.80
2018-11-10T14:33:44.064Z,18.97
2018-11-10T14:36:14.206Z,19.57
2018-11-10T14:38:44.356Z,19.87
2018-11-10T14:41:14.460Z,20.97
2018-11-10T14:43:44.575Z,17.47
2018-11-10T14:46:14.692Z,20.60
2018-11-10T14:48:44.801Z,17.77
2018-11-10T14:51:14.900Z,19.57
2018-11-10T14:53:44.994Z,21.77
2018-11-10T14:56:15.108Z,19.43
2018-11-10T14:58:45.296Z,18.10
2018-11-10T15:01:15.304Z,19.27
2018-11-10T15:03:45.391Z,21.17
2018-11-10T15:06:15.504Z,21.13
2018-11-10T15:08:45.584Z,20.37
2018-11-10T15:11:15.765Z,19.37
2018-11-10T15:13:45.860Z,20.13
2018-11-10T15:16:15.985Z,21.53
2018-11-10T15:18:46.072Z,20.10
2018-11-10T15:21:16.593Z,19.83
2018-11-10T15:23:46.784Z,21.00
2018-11-10T15:26:16.984Z,20.77
2018-11-10T15:28:47.177Z,22.13
2018-11-10T15:31:17.361Z,25.27
2018-11-10T15:33:47.461Z,27.03
2018-11-10T15:36:17.591Z,28.93
2018-11-10T15:38:47.869Z,27.90
2018-11-10T15:41:18.148Z,27.57
2018-11-10T15:43:48.310Z,27.27
2018-11-10T15:46:18.400Z,120.23
2018-11-10T15:48:48.488Z,47.63
2018-11-10T15:51:18.580Z,48.03
2018-11-10T15:53:48.708Z,38.77
2018-11-10T15:56:18.805Z,99.07
2018-11-10T15:58:48.897Z,60.00
2018-11-10T16:01:19.018Z,55.43
2018-11-10T16:03:49.117Z,62.63
2018-11-10T16:06:19.197Z,65.17
2018-11-10T16:08:49.324Z,52.83
2018-11-10T16:11:19.416Z,94.10
2018-11-10T16:13:49.521Z,150.97
2018-11-10T16:16:19.676Z,74.40
2018-11-10T16:18:49.796Z,41.60
2018-11-10T16:21:19.993Z,44.77
2018-11-10T16:23:50.092Z,44.90
2018-11-10T16:26:20.201Z,44.77
2018-11-10T16:28:50.351Z,47.80
2018-11-10T16:31:20.469Z,48.83
2018-11-10T16:33:50.745Z,44.30
2018-11-10T16:36:20.865Z,44.47
2018-11-10T16:38:51.292Z,43.57
2018-11-10T16:41:21.518Z,46.13
2018-11-10T16:43:51.857Z,40.30
2018-11-10T16:46:22.020Z,42.53
2018-11-10T16:48:52.112Z,48.30
2018-11-10T16:51:22.212Z,60.23
2018-11-10T16:53:52.322Z,60.40
2018-11-10T16:56:22.644Z,53.13
2018-11-10T16:58:52.789Z,45.73
2018-11-10T17:01:22.904Z,42.13
2018-11-10T17:03:53.163Z,39.70
2018-11-10T17:06:23.521Z,40.17
2018-11-10T17:08:53.726Z,37.43
2018-11-10T17:11:23.753Z,38.53
2018-11-10T17:13:54.512Z,112.43
2018-11-10T17:16:24.868Z,83.03
2018-11-10T17:18:55.025Z,71.10
2018-11-10T17:21:25.173Z,100.67
2018-11-10T17:23:56.151Z,47.70
2018-11-10T17:26:26.391Z,41.00
2018-11-10T17:28:56.595Z,39.57
2018-11-10T17:31:26.684Z,40.47
2018-11-10T17:33:59.332Z,48.80
2018-11-10T17:36:29.553Z,46.00
2018-11-10T17:38:59.706Z,39.77
2018-11-10T17:41:29.849Z,39.13
2018-11-10T17:44:00.097Z,47.57
2018-11-10T17:46:30.725Z,45.30
2018-11-10T17:49:01.435Z,48.63
2018-11-10T17:51:33.315Z,47.73
2018-11-10T17:54:03.536Z,48.87
2018-11-10T17:56:33.621Z,55.53
2018-11-10T17:59:03.758Z,50.57
2018-11-10T18:01:33.925Z,43.23
2018-11-10T18:04:04.483Z,38.23
2018-11-10T18:06:34.569Z,38.33
2018-11-10T18:09:07.333Z,39.53
2018-11-10T18:11:37.490Z,40.33
2018-11-10T18:14:07.884Z,43.27
2018-11-10T18:16:38.021Z,52.80
2018-11-10T18:19:08.230Z,47.17
2018-11-10T18:21:38.213Z,50.13
2018-11-10T18:24:08.380Z,46.27
2018-11-10T18:26:38.492Z,46.87
2018-11-10T18:29:10.781Z,44.27
2018-11-10T18:31:40.944Z,45.57
2018-11-10T18:34:11.121Z,51.60
2018-11-10T18:36:41.560Z,44.67
2018-11-10T18:39:11.824Z,36.97
2018-11-10T18:41:42.304Z,43.67
2018-11-10T18:44:12.451Z,46.50
2018-11-10T18:46:42.740Z,47.87
2018-11-10T18:49:12.846Z,45.50
2018-11-10T18:51:42.914Z,49.63
2018-11-10T18:54:13.104Z,55.33
2018-11-10T18:56:43.204Z,47.10
2018-11-10T18:59:13.323Z,50.83
2018-11-10T19:01:43.768Z,51.27
2018-11-10T19:04:14.017Z,47.63
2018-11-10T19:06:44.132Z,40.87
2018-11-10T19:09:14.888Z,39.67
2018-11-10T19:11:45.076Z,48.87
2018-11-10T19:14:15.171Z,49.57
2018-11-10T19:16:45.856Z,43.97
2018-11-10T19:19:15.932Z,43.50
2018-11-10T19:21:46.056Z,40.10
2018-11-10T19:24:16.163Z,46.30
2018-11-10T19:26:46.414Z,44.57
2018-11-10T19:29:16.501Z,41.13
2018-11-10T19:31:46.724Z,42.27
2018-11-10T19:34:17.295Z,43.83
2018-11-10T19:36:47.404Z,39.20
2018-11-10T19:39:17.809Z,45.47
2018-11-10T19:41:48.344Z,41.23
2018-11-10T19:44:18.688Z,43.13
2018-11-10T19:46:48.998Z,43.37
2018-11-10T19:49:19.093Z,47.43
2018-11-10T19:51:49.410Z,55.23
2018-11-10T19:54:19.340Z,49.00
2018-11-10T19:56:49.521Z,42.63
2018-11-10T19:59:19.756Z,42.90
2018-11-10T20:01:49.943Z,41.00
2018-11-10T20:04:20.061Z,33.60
2018-11-10T20:06:50.430Z,37.77
2018-11-10T20:09:20.920Z,45.57
2018-11-10T20:11:51.089Z,44.33
2018-11-10T20:14:21.247Z,46.03
2018-11-10T20:16:51.445Z,44.90
2018-11-10T20:19:21.576Z,56.80
2018-11-10T20:21:51.771Z,37.80
2018-11-10T20:24:22.030Z,48.93
2018-11-10T20:26:52.154Z,31.10
2018-11-10T20:29:22.245Z,42.80
2018-11-10T20:31:52.398Z,39.70
2018-11-10T20:34:22.568Z,41.97
2018-11-10T20:36:52.776Z,44.93
2018-11-10T20:39:22.905Z,33.13
2018-11-10T20:41:53.149Z,39.83
2018-11-10T20:44:23.301Z,41.07
2018-11-10T20:46:53.479Z,42.70
2018-11-10T20:49:23.600Z,39.00
2018-11-10T20:51:53.913Z,55.67
2018-11-10T20:54:24.111Z,50.50
2018-11-10T20:56:55.981Z,45.17
2018-11-10T20:59:26.109Z,44.00
2018-11-10T21:01:56.312Z,43.60
2018-11-10T21:04:26.552Z,38.43
2018-11-10T21:06:56.818Z,31.53
2018-11-10T21:09:27.033Z,29.50
2018-11-10T21:11:57.240Z,32.50
2018-11-10T21:14:27.356Z,33.40
2018-11-10T21:16:57.681Z,36.97
2018-11-10T21:19:27.856Z,41.60
2018-11-10T21:21:58.428Z,38.77
2018-11-10T21:24:28.733Z,42.03
2018-11-10T21:26:58.838Z,36.03
2018-11-10T21:29:29.034Z,47.47
2018-11-10T21:31:59.060Z,32.80
2018-11-10T21:34:29.216Z,41.83
2018-11-10T21:36:59.592Z,41.70
2018-11-10T21:39:29.772Z,27.60
2018-11-10T21:42:00.108Z,38.87
2018-11-10T21:44:30.293Z,32.77
2018-11-10T21:47:00.656Z,33.37
2018-11-10T21:49:30.894Z,34.83
2018-11-10T21:52:00.969Z,35.13
2018-11-10T21:54:31.240Z,44.90
2018-11-10T21:57:02.135Z,32.23
2018-11-10T21:59:32.551Z,41.07
2018-11-10T22:02:02.681Z,46.27
2018-11-10T22:04:33.062Z,45.30
2018-11-10T22:07:03.344Z,46.73
2018-11-10T22:09:33.571Z,40.47
2018-11-10T22:12:03.581Z,39.40
2018-11-10T22:14:33.706Z,40.97
2018-11-10T22:17:03.844Z,43.67
2018-11-10T22:19:33.945Z,35.63
2018-11-10T22:22:04.532Z,31.33
2018-11-10T22:24:34.633Z,32.67
2018-11-10T22:27:05.006Z,37.93
2018-11-10T22:29:35.361Z,38.93
2018-11-10T22:32:05.942Z,83.27
2018-11-10T22:34:36.056Z,68.90
2018-11-10T22:37:06.231Z,49.73
2018-11-10T22:39:36.353Z,100.73
2018-11-10T22:42:06.500Z,32.63
2018-11-10T22:44:36.608Z,37.03
2018-11-10T22:47:06.844Z,38.93
2018-11-10T22:49:36.972Z,42.17
2018-11-10T22:52:07.259Z,36.03
2018-11-10T22:54:37.497Z,44.33
2018-11-10T22:57:07.618Z,49.30
2018-11-10T22:59:37.814Z,61.20
2018-11-10T23:02:07.980Z,44.97
2018-11-10T23:04:38.106Z,42.00
2018-11-10T23:07:10.538Z,57.47
2018-11-10T23:09:46.312Z,46.13
2018-11-10T23:12:16.793Z,45.83
2018-11-10T23:14:46.916Z,55.00
2018-11-10T23:17:17.158Z,65.13
2018-11-10T23:19:47.180Z,111.10
2018-11-10T23:22:17.301Z,79.17
2018-11-10T23:24:47.465Z,57.83
2018-11-10T23:27:17.586Z,60.67
2018-11-10T23:29:47.720Z,53.57
2018-11-10T23:32:17.841Z,119.93
2018-11-10T23:34:47.982Z,53.50
2018-11-10T23:37:18.114Z,53.97
2018-11-10T23:39:48.285Z,39.00
2018-11-10T23:42:18.430Z,187.40
2018-11-10T23:44:48.592Z,111.50
2018-11-10T23:47:18.727Z,62.93
2018-11-10T23:49:48.867Z,189.43
2018-11-10T23:52:18.977Z,101.03
2018-11-10T23:54:49.132Z,111.00
2018-11-10T23:57:19.252Z,101.80
2018-11-10T23:59:49.400Z,58.00
